sensor_id;sensor_type;location;lat;lon;timestamp;temperature;humidity
65864;SHT30;52639;51.180;20.460;2022-12-24T00:03:49;4.28;98.99
65864;SHT30;52639;51.180;20.460;2022-12-24T00:07:54;4.39;99.08
65864;SHT30;52639;51.180;20.460;2022-12-24T00:12:07;4.50;99.40
65864;SHT30;52639;51.180;20.460;2022-12-24T00:16:53;4.53;98.92
65864;SHT30;52639;51.180;20.460;2022-12-24T00:21:08;4.38;98.51
65864;SHT30;52639;51.180;20.460;2022-12-24T00:25:48;4.16;98.90
65864;SHT30;52639;51.180;20.460;2022-12-24T00:30:25;4.01;98.97
65864;SHT30;52639;51.180;20.460;2022-12-24T00:34:30;3.96;98.80
65864;SHT30;52639;51.180;20.460;2022-12-24T00:38:34;3.75;98.07
65864;SHT30;52639;51.180;20.460;2022-12-24T00:42:39;3.85;99.39
65864;SHT30;52639;51.180;20.460;2022-12-24T00:46:44;3.91;99.48
65864;SHT30;52639;51.180;20.460;2022-12-24T00:50:52;3.92;99.23
65864;SHT30;52639;51.180;20.460;2022-12-24T00:54:55;3.91;99.47
65864;SHT30;52639;51.180;20.460;2022-12-24T00:59:00;3.79;99.51
65864;SHT30;52639;51.180;20.460;2022-12-24T01:03:06;3.74;99.10
65864;SHT30;52639;51.180;20.460;2022-12-24T01:07:14;3.85;99.67
65864;SHT30;52639;51.180;20.460;2022-12-24T01:11:18;3.85;99.50
65864;SHT30;52639;51.180;20.460;2022-12-24T01:15:23;3.94;99.34
65864;SHT30;52639;51.180;20.460;2022-12-24T01:19:29;3.78;99.18
65864;SHT30;52639;51.180;20.460;2022-12-24T01:24:13;3.81;99.46
65864;SHT30;52639;51.180;20.460;2022-12-24T01:28:19;3.86;99.27
65864;SHT30;52639;51.180;20.460;2022-12-24T01:32:23;3.86;99.11
65864;SHT30;52639;51.180;20.460;2022-12-24T01:36:30;3.82;99.05
65864;SHT30;52639;51.180;20.460;2022-12-24T01:45:45;3.81;99.08
65864;SHT30;52639;51.180;20.460;2022-12-24T01:49:52;3.81;99.08
65864;SHT30;52639;51.180;20.460;2022-12-24T01:54:01;3.79;98.84
65864;SHT30;52639;51.180;20.460;2022-12-24T01:58:08;3.78;98.82
65864;SHT30;52639;51.180;20.460;2022-12-24T02:02:21;3.77;98.80
65864;SHT30;52639;51.180;20.460;2022-12-24T02:07:04;3.75;99.50
65864;SHT30;52639;51.180;20.460;2022-12-24T02:11:13;3.82;98.92
65864;SHT30;52639;51.180;20.460;2022-12-24T02:15:18;3.79;98.83
65864;SHT30;52639;51.180;20.460;2022-12-24T02:24:30;3.75;98.58
65864;SHT30;52639;51.180;20.460;2022-12-24T02:29:00;3.64;98.94
65864;SHT30;52639;51.180;20.460;2022-12-24T02:33:24;3.60;98.92
65864;SHT30;52639;51.180;20.460;2022-12-24T02:37:35;3.47;99.13
65864;SHT30;52639;51.180;20.460;2022-12-24T02:41:47;3.58;99.43
65864;SHT30;52639;51.180;20.460;2022-12-24T02:46:24;3.54;99.25
65864;SHT30;52639;51.180;20.460;2022-12-24T02:50:37;3.41;99.09
65864;SHT30;52639;51.180;20.460;2022-12-24T02:54:45;3.37;99.05
65864;SHT30;52639;51.180;20.460;2022-12-24T03:03:28;3.48;99.98
65864;SHT30;52639;51.180;20.460;2022-12-24T03:07:42;3.30;98.58
65864;SHT30;52639;51.180;20.460;2022-12-24T03:11:49;3.41;99.99
65864;SHT30;52639;51.180;20.460;2022-12-24T03:15:55;3.30;98.55
65864;SHT30;52639;51.180;20.460;2022-12-24T03:20:00;3.31;99.75
65864;SHT30;52639;51.180;20.460;2022-12-24T03:24:06;3.37;99.56
65864;SHT30;52639;51.180;20.460;2022-12-24T03:28:14;3.44;99.63
65864;SHT30;52639;51.180;20.460;2022-12-24T03:32:23;3.45;99.02
65864;SHT30;52639;51.180;20.460;2022-12-24T03:36:29;3.58;99.76
65864;SHT30;52639;51.180;20.460;2022-12-24T03:40:35;3.55;98.92
65864;SHT30;52639;51.180;20.460;2022-12-24T03:44:39;3.55;99.21
65864;SHT30;52639;51.180;20.460;2022-12-24T03:48:43;3.58;99.46
65864;SHT30;52639;51.180;20.460;2022-12-24T03:52:47;3.55;99.28
65864;SHT30;52639;51.180;20.460;2022-12-24T03:56:52;3.57;99.72
65864;SHT30;52639;51.180;20.460;2022-12-24T04:00:57;3.45;98.84
65864;SHT30;52639;51.180;20.460;2022-12-24T04:05:00;3.57;99.18
65864;SHT30;52639;51.180;20.460;2022-12-24T04:09:05;3.48;99.09
65864;SHT30;52639;51.180;20.460;2022-12-24T04:13:11;3.45;99.16
65864;SHT30;52639;51.180;20.460;2022-12-24T04:17:16;3.63;99.46
65864;SHT30;52639;51.180;20.460;2022-12-24T04:21:20;3.47;98.57
65864;SHT30;52639;51.180;20.460;2022-12-24T04:25:23;3.63;99.21
65864;SHT30;52639;51.180;20.460;2022-12-24T04:29:30;3.68;99.36
65864;SHT30;52639;51.180;20.460;2022-12-24T04:33:35;3.63;99.22
65864;SHT30;52639;51.180;20.460;2022-12-24T04:37:39;3.70;99.57
65864;SHT30;52639;51.180;20.460;2022-12-24T04:41:43;3.67;98.90
65864;SHT30;52639;51.180;20.460;2022-12-24T04:45:49;3.65;99.01
65864;SHT30;52639;51.180;20.460;2022-12-24T04:49:53;3.67;99.28
65864;SHT30;52639;51.180;20.460;2022-12-24T04:53:57;3.67;99.18
65864;SHT30;52639;51.180;20.460;2022-12-24T04:58:00;3.55;98.33
65864;SHT30;52639;51.180;20.460;2022-12-24T05:02:07;3.51;98.96
65864;SHT30;52639;51.180;20.460;2022-12-24T05:06:13;3.47;98.98
65864;SHT30;52639;51.180;20.460;2022-12-24T05:10:17;3.45;99.37
65864;SHT30;52639;51.180;20.460;2022-12-24T05:14:21;3.50;99.20
65864;SHT30;52639;51.180;20.460;2022-12-24T05:18:28;3.54;99.22
65864;SHT30;52639;51.180;20.460;2022-12-24T05:22:31;3.57;99.03
65864;SHT30;52639;51.180;20.460;2022-12-24T05:26:55;3.58;99.01
65864;SHT30;52639;51.180;20.460;2022-12-24T05:30:59;3.53;98.68
65864;SHT30;52639;51.180;20.460;2022-12-24T05:35:07;3.44;99.05
65864;SHT30;52639;51.180;20.460;2022-12-24T05:39:12;3.50;99.30
65864;SHT30;52639;51.180;20.460;2022-12-24T05:43:18;3.51;98.84
65864;SHT30;52639;51.180;20.460;2022-12-24T05:47:22;3.41;98.88
65864;SHT30;52639;51.180;20.460;2022-12-24T05:51:29;3.34;99.16
65864;SHT30;52639;51.180;20.460;2022-12-24T05:55:33;3.30;99.31
65864;SHT30;52639;51.180;20.460;2022-12-24T05:59:38;3.38;99.04
65864;SHT30;52639;51.180;20.460;2022-12-24T06:03:43;3.33;99.11
65864;SHT30;52639;51.180;20.460;2022-12-24T06:07:49;3.20;98.94
65864;SHT30;52639;51.180;20.460;2022-12-24T06:11:53;3.16;99.39
65864;SHT30;52639;51.180;20.460;2022-12-24T06:15:59;3.20;99.36
65864;SHT30;52639;51.180;20.460;2022-12-24T06:20:04;3.37;99.97
65864;SHT30;52639;51.180;20.460;2022-12-24T06:24:10;3.55;99.99
65864;SHT30;52639;51.180;20.460;2022-12-24T06:28:15;3.55;99.06
65864;SHT30;52639;51.180;20.460;2022-12-24T06:32:19;3.61;98.85
65864;SHT30;52639;51.180;20.460;2022-12-24T06:36:24;3.71;99.28
65864;SHT30;52639;51.180;20.460;2022-12-24T06:40:31;3.68;99.34
65864;SHT30;52639;51.180;20.460;2022-12-24T06:44:41;3.44;98.66
65864;SHT30;52639;51.180;20.460;2022-12-24T06:48:46;3.55;99.98
65864;SHT30;52639;51.180;20.460;2022-12-24T06:52:50;3.73;99.36
65864;SHT30;52639;51.180;20.460;2022-12-24T06:56:57;3.79;98.79
65864;SHT30;52639;51.180;20.460;2022-12-24T07:01:02;3.86;99.54
65864;SHT30;52639;51.180;20.460;2022-12-24T07:05:08;4.01;99.12
65864;SHT30;52639;51.180;20.460;2022-12-24T07:09:13;3.86;98.49
65864;SHT30;52639;51.180;20.460;2022-12-24T07:13:19;3.94;99.26
65864;SHT30;52639;51.180;20.460;2022-12-24T07:17:24;3.82;98.75
65864;SHT30;52639;51.180;20.460;2022-12-24T07:21:27;3.78;98.51
65864;SHT30;52639;51.180;20.460;2022-12-24T07:25:36;3.91;99.39
65864;SHT30;52639;51.180;20.460;2022-12-24T07:29:47;4.02;99.23
65864;SHT30;52639;51.180;20.460;2022-12-24T07:38:50;4.23;99.17
65864;SHT30;52639;51.180;20.460;2022-12-24T07:42:59;4.28;98.81
65864;SHT30;52639;51.180;20.460;2022-12-24T07:47:04;4.26;98.92
65864;SHT30;52639;51.180;20.460;2022-12-24T07:51:08;4.30;98.86
65864;SHT30;52639;51.180;20.460;2022-12-24T07:55:12;4.35;98.34
65864;SHT30;52639;51.180;20.460;2022-12-24T07:59:17;4.25;98.66
65864;SHT30;52639;51.180;20.460;2022-12-24T08:03:27;4.19;98.89
65864;SHT30;52639;51.180;20.460;2022-12-24T08:07:31;4.22;98.85
65864;SHT30;52639;51.180;20.460;2022-12-24T08:11:35;4.23;98.84
65864;SHT30;52639;51.180;20.460;2022-12-24T08:15:39;4.23;98.73
65864;SHT30;52639;51.180;20.460;2022-12-24T08:19:45;4.25;98.99
65864;SHT30;52639;51.180;20.460;2022-12-24T08:23:58;4.26;98.97
65864;SHT30;52639;51.180;20.460;2022-12-24T08:28:02;4.15;98.39
65864;SHT30;52639;51.180;20.460;2022-12-24T08:32:12;4.16;99.30
65864;SHT30;52639;51.180;20.460;2022-12-24T08:36:26;4.23;99.03
65864;SHT30;52639;51.180;20.460;2022-12-24T08:45:39;4.33;98.80
65864;SHT30;52639;51.180;20.460;2022-12-24T08:49:49;4.45;98.93
65864;SHT30;52639;51.180;20.460;2022-12-24T08:54:00;4.49;98.57
65864;SHT30;52639;51.180;20.460;2022-12-24T08:58:08;4.52;98.71
65864;SHT30;52639;51.180;20.460;2022-12-24T09:02:15;4.40;98.67
65864;SHT30;52639;51.180;20.460;2022-12-24T09:06:20;4.43;98.57
65864;SHT30;52639;51.180;20.460;2022-12-24T09:10:27;4.39;98.92
65864;SHT30;52639;51.180;20.460;2022-12-24T09:14:35;4.40;98.97
65864;SHT30;52639;51.180;20.460;2022-12-24T09:18:41;4.23;97.97
65864;SHT30;52639;51.180;20.460;2022-12-24T09:22:49;4.39;99.12
65864;SHT30;52639;51.180;20.460;2022-12-24T09:26:56;4.60;99.08
65864;SHT30;52639;51.180;20.460;2022-12-24T09:31:02;4.69;98.89
65864;SHT30;52639;51.180;20.460;2022-12-24T09:35:13;4.90;98.68
65864;SHT30;52639;51.180;20.460;2022-12-24T09:39:19;4.97;98.30
65864;SHT30;52639;51.180;20.460;2022-12-24T09:48:13;5.01;98.30
65864;SHT30;52639;51.180;20.460;2022-12-24T09:52:32;4.84;98.20
65864;SHT30;52639;51.180;20.460;2022-12-24T09:56:40;4.94;98.88
65864;SHT30;52639;51.180;20.460;2022-12-24T10:06:30;5.35;98.51
65864;SHT30;52639;51.180;20.460;2022-12-24T10:10:49;5.48;98.22
65864;SHT30;52639;51.180;20.460;2022-12-24T10:15:13;5.61;98.22
65864;SHT30;52639;51.180;20.460;2022-12-24T10:19:23;5.68;98.48
65864;SHT30;52639;51.180;20.460;2022-12-24T10:23:37;5.63;98.49
65864;SHT30;52639;51.180;20.460;2022-12-24T10:27:45;5.72;98.35
65864;SHT30;52639;51.180;20.460;2022-12-24T10:32:27;5.73;98.58
65864;SHT30;52639;51.180;20.460;2022-12-24T10:36:35;5.69;98.49
65864;SHT30;52639;51.180;20.460;2022-12-24T10:40:51;5.69;98.49
65864;SHT30;52639;51.180;20.460;2022-12-24T10:45:13;5.65;98.10
65864;SHT30;52639;51.180;20.460;2022-12-24T10:49:59;5.61;98.38
65864;SHT30;52639;51.180;20.460;2022-12-24T10:54:13;5.68;98.78
65864;SHT30;52639;51.180;20.460;2022-12-24T10:58:25;5.69;98.49
65864;SHT30;52639;51.180;20.460;2022-12-24T11:02:33;5.82;98.85
65864;SHT30;52639;51.180;20.460;2022-12-24T11:06:51;5.69;98.44
65864;SHT30;52639;51.180;20.460;2022-12-24T11:11:03;5.59;98.54
65864;SHT30;52639;51.180;20.460;2022-12-24T11:15:32;5.56;98.78
65864;SHT30;52639;51.180;20.460;2022-12-24T11:19:40;5.38;98.00
65864;SHT30;52639;51.180;20.460;2022-12-24T11:24:11;5.38;99.29
65864;SHT30;52639;51.180;20.460;2022-12-24T11:28:22;5.37;98.75
65864;SHT30;52639;51.180;20.460;2022-12-24T11:32:30;5.30;99.18
65864;SHT30;52639;51.180;20.460;2022-12-24T11:36:35;5.30;99.14
65864;SHT30;52639;51.180;20.460;2022-12-24T11:40:43;5.21;98.28
65864;SHT30;52639;51.180;20.460;2022-12-24T11:44:54;5.28;99.39
65864;SHT30;52639;51.180;20.460;2022-12-24T11:49:21;5.30;99.30
65864;SHT30;52639;51.180;20.460;2022-12-24T11:53:30;5.30;99.38
65864;SHT30;52639;51.180;20.460;2022-12-24T11:57:46;5.27;99.02
65864;SHT30;52639;51.180;20.460;2022-12-24T12:01:55;5.21;98.90
65864;SHT30;52639;51.180;20.460;2022-12-24T12:06:15;5.21;99.21
65864;SHT30;52639;51.180;20.460;2022-12-24T12:10:26;5.17;99.11
65864;SHT30;52639;51.180;20.460;2022-12-24T12:14:37;5.24;99.06
65864;SHT30;52639;51.180;20.460;2022-12-24T12:18:48;5.28;99.08
65864;SHT30;52639;51.180;20.460;2022-12-24T12:23:01;5.35;98.53
65864;SHT30;52639;51.180;20.460;2022-12-24T12:27:16;5.44;99.11
65864;SHT30;52639;51.180;20.460;2022-12-24T12:31:26;5.37;98.95
65864;SHT30;52639;51.180;20.460;2022-12-24T12:35:34;5.35;98.91
65864;SHT30;52639;51.180;20.460;2022-12-24T12:39:43;5.45;99.17
65864;SHT30;52639;51.180;20.460;2022-12-24T12:44:06;5.45;98.80
65864;SHT30;52639;51.180;20.460;2022-12-24T12:53:04;5.42;99.06
65864;SHT30;52639;51.180;20.460;2022-12-24T12:57:20;5.45;98.77
65864;SHT30;52639;51.180;20.460;2022-12-24T13:01:39;5.38;98.89
65864;SHT30;52639;51.180;20.460;2022-12-24T13:06:19;5.28;98.96
65864;SHT30;52639;51.180;20.460;2022-12-24T13:10:43;5.23;99.15
65864;SHT30;52639;51.180;20.460;2022-12-24T13:19:38;5.18;98.98
65864;SHT30;52639;51.180;20.460;2022-12-24T13:23:46;5.18;99.15
65864;SHT30;52639;51.180;20.460;2022-12-24T13:27:53;5.15;99.16
65864;SHT30;52639;51.180;20.460;2022-12-24T13:32:40;5.10;99.03
65864;SHT30;52639;51.180;20.460;2022-12-24T13:37:19;5.13;99.16
65864;SHT30;52639;51.180;20.460;2022-12-24T13:41:57;5.11;99.20
65864;SHT30;52639;51.180;20.460;2022-12-24T13:46:09;5.21;99.05
65864;SHT30;52639;51.180;20.460;2022-12-24T13:50:39;5.05;98.67
65864;SHT30;52639;51.180;20.460;2022-12-24T13:55:13;5.01;99.18
65864;SHT30;52639;51.180;20.460;2022-12-24T13:59:35;4.98;98.86
65864;SHT30;52639;51.180;20.460;2022-12-24T14:03:46;4.94;99.15
65864;SHT30;52639;51.180;20.460;2022-12-24T14:08:25;4.90;99.12
65864;SHT30;52639;51.180;20.460;2022-12-24T14:12:56;4.94;99.09
65864;SHT30;52639;51.180;20.460;2022-12-24T14:18:01;4.83;99.35
65864;SHT30;52639;51.180;20.460;2022-12-24T14:28:05;4.79;99.26
65864;SHT30;52639;51.180;20.460;2022-12-24T14:32:47;4.72;98.75
65864;SHT30;52639;51.180;20.460;2022-12-24T14:37:32;4.72;99.13
65864;SHT30;52639;51.180;20.460;2022-12-24T14:41:51;4.74;99.38
65864;SHT30;52639;51.180;20.460;2022-12-24T14:46:09;4.72;99.27
65864;SHT30;52639;51.180;20.460;2022-12-24T14:54:59;4.64;99.29
65864;SHT30;52639;51.180;20.460;2022-12-24T14:59:18;4.54;99.04
65864;SHT30;52639;51.180;20.460;2022-12-24T15:53:26;4.40;99.37
65864;SHT30;52639;51.180;20.460;2022-12-24T15:57:51;4.33;99.06
65864;SHT30;52639;51.180;20.460;2022-12-24T16:06:53;4.26;99.55
65864;SHT30;52639;51.180;20.460;2022-12-24T16:11:12;4.26;99.45
65864;SHT30;52639;51.180;20.460;2022-12-24T16:15:21;4.25;99.46
65864;SHT30;52639;51.180;20.460;2022-12-24T16:19:30;4.20;99.19
65864;SHT30;52639;51.180;20.460;2022-12-24T16:23:44;4.23;99.33
65864;SHT30;52639;51.180;20.460;2022-12-24T16:27:50;4.25;99.61
65864;SHT30;52639;51.180;20.460;2022-12-24T16:32:00;4.22;99.48
65864;SHT30;52639;51.180;20.460;2022-12-24T16:36:19;4.19;99.40
65864;SHT30;52639;51.180;20.460;2022-12-24T16:40:38;4.23;99.59
65864;SHT30;52639;51.180;20.460;2022-12-24T16:44:55;4.19;99.23
65864;SHT30;52639;51.180;20.460;2022-12-24T16:49:08;4.10;99.28
65864;SHT30;52639;51.180;20.460;2022-12-24T16:53:31;4.08;99.43
65864;SHT30;52639;51.180;20.460;2022-12-24T16:57:56;4.10;99.45
65864;SHT30;52639;51.180;20.460;2022-12-24T17:02:05;4.10;99.75
65864;SHT30;52639;51.180;20.460;2022-12-24T17:06:13;4.09;99.34
65864;SHT30;52639;51.180;20.460;2022-12-24T17:10:20;4.06;99.38
65864;SHT30;52639;51.180;20.460;2022-12-24T17:14:27;4.12;99.52
65864;SHT30;52639;51.180;20.460;2022-12-24T17:18:36;4.08;99.24
65864;SHT30;52639;51.180;20.460;2022-12-24T17:22:42;4.09;99.64
65864;SHT30;52639;51.180;20.460;2022-12-24T17:26:47;4.02;99.41
65864;SHT30;52639;51.180;20.460;2022-12-24T17:30:53;4.08;99.52
65864;SHT30;52639;51.180;20.460;2022-12-24T17:35:02;4.06;99.51
65864;SHT30;52639;51.180;20.460;2022-12-24T17:39:11;3.91;98.95
65864;SHT30;52639;51.180;20.460;2022-12-24T17:43:18;3.81;99.71
65864;SHT30;52639;51.180;20.460;2022-12-24T17:47:26;3.85;99.61
65864;SHT30;52639;51.180;20.460;2022-12-24T17:51:35;3.86;99.26
65864;SHT30;52639;51.180;20.460;2022-12-24T17:55:43;3.73;99.24
65864;SHT30;52639;51.180;20.460;2022-12-24T17:59:49;3.58;99.06
65864;SHT30;52639;51.180;20.460;2022-12-24T18:03:57;3.54;99.79
65864;SHT30;52639;51.180;20.460;2022-12-24T18:08:07;3.65;99.71
65864;SHT30;52639;51.180;20.460;2022-12-24T18:12:17;3.60;99.55
65864;SHT30;52639;51.180;20.460;2022-12-24T18:16:24;3.51;99.59
65864;SHT30;52639;51.180;20.460;2022-12-24T18:20:34;3.44;99.56
65864;SHT30;52639;51.180;20.460;2022-12-24T18:24:43;3.40;99.60
65864;SHT30;52639;51.180;20.460;2022-12-24T18:28:51;3.35;99.51
65864;SHT30;52639;51.180;20.460;2022-12-24T18:33:07;3.33;99.99
65864;SHT30;52639;51.180;20.460;2022-12-24T18:37:22;3.34;99.92
65864;SHT30;52639;51.180;20.460;2022-12-24T18:41:32;3.41;99.93
65864;SHT30;52639;51.180;20.460;2022-12-24T18:45:40;3.34;99.74
65864;SHT30;52639;51.180;20.460;2022-12-24T18:49:45;3.31;99.99
65864;SHT30;52639;51.180;20.460;2022-12-24T18:53:51;3.34;99.94
65864;SHT30;52639;51.180;20.460;2022-12-24T18:57:58;3.35;99.77
65864;SHT30;52639;51.180;20.460;2022-12-24T19:02:10;3.27;99.69
65864;SHT30;52639;51.180;20.460;2022-12-24T19:06:21;3.34;99.99
65864;SHT30;52639;51.180;20.460;2022-12-24T19:10:26;3.31;99.64
65864;SHT30;52639;51.180;20.460;2022-12-24T19:14:36;3.24;99.80
65864;SHT30;52639;51.180;20.460;2022-12-24T19:18:41;3.28;99.91
65864;SHT30;52639;51.180;20.460;2022-12-24T19:22:46;3.17;99.58
65864;SHT30;52639;51.180;20.460;2022-12-24T19:26:50;3.11;99.63
65864;SHT30;52639;51.180;20.460;2022-12-24T19:31:03;3.13;99.99
65864;SHT30;52639;51.180;20.460;2022-12-24T19:35:08;3.14;99.89
65864;SHT30;52639;51.180;20.460;2022-12-24T19:39:13;3.14;99.99
65864;SHT30;52639;51.180;20.460;2022-12-24T19:43:18;3.16;99.90
65864;SHT30;52639;51.180;20.460;2022-12-24T19:47:26;3.19;99.78
65864;SHT30;52639;51.180;20.460;2022-12-24T19:51:32;3.11;99.67
65864;SHT30;52639;51.180;20.460;2022-12-24T19:55:44;3.09;99.99
65864;SHT30;52639;51.180;20.460;2022-12-24T19:59:49;3.16;99.99
65864;SHT30;52639;51.180;20.460;2022-12-24T20:03:58;3.03;99.62
65864;SHT30;52639;51.180;20.460;2022-12-24T20:08:03;3.11;99.99
65864;SHT30;52639;51.180;20.460;2022-12-24T20:12:08;3.19;99.99
65864;SHT30;52639;51.180;20.460;2022-12-24T20:16:17;3.13;99.57
65864;SHT30;52639;51.180;20.460;2022-12-24T20:20:33;3.04;99.64
65864;SHT30;52639;51.180;20.460;2022-12-24T20:24:45;3.10;99.99
65864;SHT30;52639;51.180;20.460;2022-12-24T20:28:54;2.99;99.72
65864;SHT30;52639;51.180;20.460;2022-12-24T20:33:02;3.06;99.99
65864;SHT30;52639;51.180;20.460;2022-12-24T20:37:12;3.10;99.99
65864;SHT30;52639;51.180;20.460;2022-12-24T20:41:25;3.23;99.99
65864;SHT30;52639;51.180;20.460;2022-12-24T20:45:37;3.34;99.99
65864;SHT30;52639;51.180;20.460;2022-12-24T20:49:46;3.57;99.99
65864;SHT30;52639;51.180;20.460;2022-12-24T20:53:59;3.78;99.99
65864;SHT30;52639;51.180;20.460;2022-12-24T20:58:06;3.71;99.49
65864;SHT30;52639;51.180;20.460;2022-12-24T21:02:17;3.74;99.99
65864;SHT30;52639;51.180;20.460;2022-12-24T21:06:27;3.79;99.18
65864;SHT30;52639;51.180;20.460;2022-12-24T21:10:45;3.92;99.92
65864;SHT30;52639;51.180;20.460;2022-12-24T21:15:11;3.95;99.50
65864;SHT30;52639;51.180;20.460;2022-12-24T21:19:22;4.02;99.66
65864;SHT30;52639;51.180;20.460;2022-12-24T21:23:34;4.13;99.88
65864;SHT30;52639;51.180;20.460;2022-12-24T21:27:50;4.16;99.60
65864;SHT30;52639;51.180;20.460;2022-12-24T21:32:01;4.25;99.54
65864;SHT30;52639;51.180;20.460;2022-12-24T21:36:10;4.30;99.37
65864;SHT30;52639;51.180;20.460;2022-12-24T21:40:37;4.32;99.23
65864;SHT30;52639;51.180;20.460;2022-12-24T21:44:52;4.36;99.23
65864;SHT30;52639;51.180;20.460;2022-12-24T21:48:57;4.35;99.00
65864;SHT30;52639;51.180;20.460;2022-12-24T21:53:18;4.26;99.09
65864;SHT30;52639;51.180;20.460;2022-12-24T21:57:39;4.25;99.22
65864;SHT30;52639;51.180;20.460;2022-12-24T22:01:59;4.23;99.17
65864;SHT30;52639;51.180;20.460;2022-12-24T22:06:04;4.30;99.44
65864;SHT30;52639;51.180;20.460;2022-12-24T22:10:13;4.30;99.10
65864;SHT30;52639;51.180;20.460;2022-12-24T22:14:34;4.32;99.17
65864;SHT30;52639;51.180;20.460;2022-12-24T22:18:40;4.36;99.22
65864;SHT30;52639;51.180;20.460;2022-12-24T22:22:46;4.36;99.24
65864;SHT30;52639;51.180;20.460;2022-12-24T22:26:51;4.39;99.40
65864;SHT30;52639;51.180;20.460;2022-12-24T22:30:55;4.40;99.16
65864;SHT30;52639;51.180;20.460;2022-12-24T22:35:02;4.39;99.09
65864;SHT30;52639;51.180;20.460;2022-12-24T22:39:06;4.40;99.25
65864;SHT30;52639;51.180;20.460;2022-12-24T22:43:11;4.35;98.78
65864;SHT30;52639;51.180;20.460;2022-12-24T22:47:15;4.38;99.27
65864;SHT30;52639;51.180;20.460;2022-12-24T22:51:21;4.39;99.20
65864;SHT30;52639;51.180;20.460;2022-12-24T22:55:29;4.33;99.07
65864;SHT30;52639;51.180;20.460;2022-12-24T22:59:33;4.39;99.22
65864;SHT30;52639;51.180;20.460;2022-12-24T23:03:37;4.35;99.16
65864;SHT30;52639;51.180;20.460;2022-12-24T23:07:43;4.40;99.18
65864;SHT30;52639;51.180;20.460;2022-12-24T23:11:47;4.30;98.74
65864;SHT30;52639;51.180;20.460;2022-12-24T23:15:52;4.32;99.43
65864;SHT30;52639;51.180;20.460;2022-12-24T23:19:56;4.33;99.31
65864;SHT30;52639;51.180;20.460;2022-12-24T23:24:04;4.32;99.54
65864;SHT30;52639;51.180;20.460;2022-12-24T23:28:08;4.29;99.19
65864;SHT30;52639;51.180;20.460;2022-12-24T23:32:12;4.35;99.69
65864;SHT30;52639;51.180;20.460;2022-12-24T23:36:16;4.39;99.62
65864;SHT30;52639;51.180;20.460;2022-12-24T23:40:23;4.40;99.40
65864;SHT30;52639;51.180;20.460;2022-12-24T23:44:27;4.40;99.43
65864;SHT30;52639;51.180;20.460;2022-12-24T23:48:32;4.38;99.48
65864;SHT30;52639;51.180;20.460;2022-12-24T23:52:36;4.29;99.38
65864;SHT30;52639;51.180;20.460;2022-12-24T23:56:44;4.32;99.58
